Time;durP1;ratioP1;P1;durP2;ratioP2;P2;SDS_P1;SDS_P2;PMS_P1;PMS_P2;Temp;Humidity;BMP_temperature;BMP_pressure;BME280_temperature;BME280_humidity;BME280_pressure;Samples;Min_cycle;Max_cycle;Signal;HPM_P1;HPM_P2
2020/12/09 00:03:06;;;;;;;49.05;26.35;;;;;;;2.13;66.46;98738.53;251554;1134;114834;-80
2020/12/09 00:08:09;;;;;;;48.63;24.25;;;;;;;2.13;66.27;98730.66;251346;1135;115109;-79
2020/12/09 00:13:12;;;;;;;47.13;23.97;;;;;;;2.13;66.65;98746.41;251451;1134;115884;-79
2020/12/09 00:18:14;;;;;;;43.87;22.97;;;;;;;2.11;65.79;98743.00;249786;1135;115181;-80
2020/12/09 00:23:16;;;;;;;47.17;24.30;;;;;;;2.09;66.74;98750.91;251223;1134;114936;-80
2020/12/09 00:28:19;;;;;;;42.27;22.55;;;;;;;2.10;66.50;98747.36;251573;1134;114774;-80
2020/12/09 00:33:22;;;;;;;40.90;22.00;;;;;;;2.13;66.49;98755.14;251580;1134;115157;-80
2020/12/09 00:38:24;;;;;;;40.10;22.10;;;;;;;2.18;66.52;98748.91;250010;1134;115321;-81
2020/12/09 00:43:29;;;;;;;40.17;22.40;;;;;;;2.18;66.51;98755.01;250562;1135;115298;-79
2020/12/09 00:48:32;;;;;;;36.73;20.57;;;;;;;2.17;66.40;98760.30;249209;1134;115275;-81
2020/12/09 00:53:37;;;;;;;;;;;;;;;2.16;66.25;98776.96;251478;1135;114969;-80
2020/12/09 00:58:39;;;;;;;35.27;20.03;;;;;;;2.13;66.62;98768.27;251322;1134;104337;-80
2020/12/09 01:03:42;;;;;;;39.33;21.20;;;;;;;2.12;66.55;98770.95;249441;1135;115638;-83
2020/12/09 01:08:45;;;;;;;36.30;20.37;;;;;;;2.11;66.15;98750.87;251187;1134;114828;-83
2020/12/09 01:13:48;;;;;;;38.20;20.90;;;;;;;2.09;66.19;98744.80;251406;1134;115267;-80
2020/12/09 01:18:51;;;;;;;37.00;19.32;;;;;;;2.05;66.37;98751.92;251486;1135;115259;-82
2020/12/09 01:23:53;;;;;;;39.00;20.00;;;;;;;2.03;66.69;98763.36;249468;1134;115316;-83
2020/12/09 01:28:56;;;;;;;35.90;20.03;;;;;;;2.00;66.36;98755.59;251462;1134;114854;-81
2020/12/09 01:34:09;;;;;;;37.07;20.40;;;;;;;2.00;66.38;98764.31;250656;1134;114560;-82
2020/12/09 01:39:12;;;;;;;39.27;20.63;;;;;;;1.98;66.23;98760.90;251358;1135;115104;-82
2020/12/09 01:44:15;;;;;;;39.67;20.77;;;;;;;1.94;65.89;98754.04;251321;1134;115743;-80
2020/12/09 01:49:17;;;;;;;34.23;19.37;;;;;;;1.90;66.36;98747.14;251610;1135;114649;-82
2020/12/09 01:54:33;;;;;;;36.20;20.60;;;;;;;1.88;66.29;98741.11;251671;1134;115319;-82
2020/12/09 01:59:37;;;;;;;36.30;20.47;;;;;;;1.87;66.32;98745.50;251410;1134;115126;-82
2020/12/09 02:04:42;;;;;;;37.00;20.45;;;;;;;1.86;66.15;98751.63;251635;1135;114823;-82
2020/12/09 02:09:55;;;;;;;31.57;18.57;;;;;;;1.83;66.52;98761.36;251549;1134;114971;-80
2020/12/09 02:14:58;;;;;;;36.50;19.83;;;;;;;1.79;66.42;98754.50;251680;1134;114826;-79
2020/12/09 02:20:01;;;;;;;37.58;21.12;;;;;;;1.76;66.10;98749.34;250707;1134;114855;-79
2020/12/09 02:25:05;;;;;;;42.83;21.00;;;;;;;1.75;66.36;98768.63;251569;1135;115154;-80
2020/12/09 02:30:07;;;;;;;36.42;20.20;;;;;;;1.74;66.19;98761.67;251313;1135;114954;-82
2020/12/09 02:35:10;;;;;;;37.17;19.37;;;;;;;1.72;66.78;98752.98;251549;1134;114872;-82
2020/12/09 02:40:12;;;;;;;36.57;20.47;;;;;;;1.69;66.63;98758.31;251419;1134;114635;-82
2020/12/09 02:45:15;;;;;;;33.80;19.48;;;;;;;1.67;66.04;98757.52;251505;1134;114851;-79
2020/12/09 02:50:17;;;;;;;36.80;19.30;;;;;;;1.65;65.70;98754.93;247941;1134;115010;-81
2020/12/09 02:55:20;;;;;;;37.47;21.40;;;;;;;1.65;66.35;98758.41;251456;1136;114730;-82
2020/12/09 03:00:22;;;;;;;35.08;19.80;;;;;;;1.64;65.93;98767.19;251529;1135;114845;-81
2020/12/09 03:05:25;;;;;;;37.10;20.17;;;;;;;1.62;66.27;98766.37;251559;1134;115137;-81
2020/12/09 03:10:27;;;;;;;35.10;19.12;;;;;;;1.59;65.96;98757.73;251636;1136;114632;-85
2020/12/09 03:15:29;;;;;;;35.53;17.93;;;;;;;1.58;65.96;98758.65;251475;1134;114739;-82
2020/12/09 03:20:32;;;;;;;37.20;20.12;;;;;;;1.58;66.09;98756.88;251482;1134;114782;-82
2020/12/09 03:25:35;;;;;;;38.25;19.55;;;;;;;1.59;65.93;98763.83;251427;1135;114741;-85
2020/12/09 03:30:37;;;;;;;34.27;18.60;;;;;;;1.58;66.45;98749.02;251435;1135;114887;-81
2020/12/09 03:35:39;;;;;;;34.27;19.10;;;;;;;1.58;66.12;98751.63;251412;1134;114794;-81
2020/12/09 03:40:59;;;;;;;37.37;20.23;;;;;;;1.58;66.36;98775.23;251137;1133;114695;-80
2020/12/09 03:46:03;;;;;;;35.43;18.93;;;;;;;1.59;66.53;98782.19;250547;1135;114654;-81
2020/12/09 03:51:06;;;;;;;35.13;20.00;;;;;;;1.57;66.35;98776.16;250913;1134;115003;-80
2020/12/09 03:56:09;;;;;;;35.25;18.50;;;;;;;1.53;65.95;98769.28;250632;1133;114902;-83
2020/12/09 04:01:12;;;;;;;37.17;19.10;;;;;;;1.54;66.18;98767.52;251516;1135;114949;-81
2020/12/09 04:06:15;;;;;;;34.27;18.63;;;;;;;1.52;66.25;98759.68;251595;1135;115198;-80
2020/12/09 04:11:18;;;;;;;36.35;18.75;;;;;;;1.53;65.98;98764.05;251276;1134;116311;-83
2020/12/09 04:16:22;;;;;;;34.67;18.92;;;;;;;1.52;66.54;98764.07;251643;1135;114803;-84
2020/12/09 04:21:24;;;;;;;36.47;18.83;;;;;;;1.54;66.77;98768.38;251455;1135;114891;-81
2020/12/09 04:26:27;;;;;;;35.63;18.43;;;;;;;1.55;66.45;98771.84;251531;1134;114830;-80
2020/12/09 04:31:30;;;;;;;35.97;19.27;;;;;;;1.55;66.79;98775.33;251580;1135;115014;-79
2020/12/09 04:36:33;;;;;;;39.23;20.50;;;;;;;1.55;66.23;98771.84;249527;1135;115401;-80
2020/12/09 04:41:35;;;;;;;37.93;19.12;;;;;;;1.53;66.26;98777.16;251379;1135;115165;-81
2020/12/09 04:46:45;;;;;;;36.43;19.27;;;;;;;1.52;66.65;98778.03;251156;1134;115157;-83
2020/12/09 04:52:16;;;;;;;41.10;21.33;;;;;;;1.53;66.71;98782.40;251577;1135;115579;-81
2020/12/09 04:57:48;;;;;;;38.30;20.83;;;;;;;1.56;66.30;98778.80;251522;1134;115007;-80
2020/12/09 05:02:54;;;;;;;39.00;21.13;;;;;;;1.49;66.06;98772.88;251638;1135;115131;-85
2020/12/09 05:08:00;;;;;;;41.48;19.80;;;;;;;1.45;66.95;98773.88;251612;1135;115074;-84
2020/12/09 05:13:04;;;;;;;40.37;21.50;;;;;;;1.42;66.21;98769.58;251493;1135;115006;-80
2020/12/09 05:18:10;;;;;;;41.45;22.55;;;;;;;1.39;66.59;98774.05;251683;1134;114750;-80
2020/12/09 05:23:12;;;;;;;37.85;21.50;;;;;;;1.42;66.86;98771.34;251506;1134;115193;-81
2020/12/09 05:28:14;;;;;;;45.13;21.47;;;;;;;1.41;67.02;98767.02;251515;1134;115130;-81
2020/12/09 05:33:19;;;;;;;43.98;21.40;;;;;;;1.36;66.86;98771.55;251456;1134;114938;-79
2020/12/09 05:38:22;;;;;;;40.33;21.20;;;;;;;1.33;66.55;98769.88;251261;1135;115159;-80
2020/12/09 05:43:25;;;;;;;42.77;21.90;;;;;;;1.31;66.73;98781.30;251495;1135;114862;-82
2020/12/09 05:48:28;;;;;;;44.07;22.23;;;;;;;1.26;67.07;98767.45;251558;1134;114947;-81
2020/12/09 05:53:33;;;;;;;38.90;21.70;;;;;;;1.27;67.53;98785.77;251351;1134;115081;-82
2020/12/09 05:58:37;;;;;;;;;;;;;;;1.23;67.04;98784.14;251186;1134;115465;-82
2020/12/09 06:03:45;;;;;;;42.27;22.53;;;;;;;1.27;66.90;98787.53;251583;1134;103221;-79
2020/12/09 06:08:55;;;;;;;41.00;21.83;;;;;;;1.29;67.49;98793.57;251500;1134;114891;-80
2020/12/09 06:14:03;;;;;;;39.60;19.03;;;;;;;1.28;67.54;98784.00;251570;1134;115144;-84
2020/12/09 06:19:06;;;;;;;44.83;21.70;;;;;;;1.21;67.06;98795.56;251436;1134;114835;-81
2020/12/09 06:24:09;;;;;;;42.03;21.43;;;;;;;1.16;67.63;98796.56;251326;1134;115808;-80
2020/12/09 06:29:11;;;;;;;41.60;22.73;;;;;;;1.18;67.08;98809.61;251316;1134;115294;-82
2020/12/09 06:34:14;;;;;;;40.63;21.27;;;;;;;1.20;67.57;98809.58;251676;1133;115309;-81
2020/12/09 06:39:19;;;;;;;40.33;22.10;;;;;;;1.16;67.03;98811.43;251380;1134;116262;-78
2020/12/09 06:44:28;;;;;;;42.17;21.87;;;;;;;1.14;66.72;98808.83;251425;1136;115176;-80
2020/12/09 06:49:39;;;;;;;42.27;22.70;;;;;;;1.12;67.55;98813.28;251606;1135;114966;-83
2020/12/09 06:54:49;;;;;;;43.10;23.10;;;;;;;1.13;67.71;98812.37;251687;1134;114752;-81
2020/12/09 07:00:20;;;;;;;42.27;22.23;;;;;;;1.12;67.51;98823.77;250252;1134;115135;-81
2020/12/09 07:05:30;;;;;;;42.87;22.23;;;;;;;1.14;67.74;98832.42;251794;1135;114963;-83
2020/12/09 07:10:33;;;;;;;38.53;20.47;;;;;;;1.12;67.06;98826.38;250068;1135;114617;-82
2020/12/09 07:15:41;;;;;;;40.23;19.92;;;;;;;1.17;67.45;98829.72;251583;1135;114980;-83
2020/12/09 07:20:47;;;;;;;38.47;20.37;;;;;;;1.15;66.90;98825.41;251724;1135;115087;-83
2020/12/09 07:25:55;;;;;;;40.03;21.80;;;;;;;1.14;67.22;98818.46;247570;1134;114881;-82
2020/12/09 07:31:06;;;;;;;43.07;22.20;;;;;;;1.16;67.06;98828.01;251457;1134;115377;-82
2020/12/09 07:36:10;;;;;;;44.63;22.47;;;;;;;1.22;67.76;98823.48;251874;1134;114946;-82
2020/12/09 07:41:13;;;;;;;36.77;20.52;;;;;;;1.24;67.65;98830.41;251519;1135;114829;-82
2020/12/09 07:46:16;;;;;;;44.03;21.27;;;;;;;1.25;67.51;98832.12;249962;1134;115227;-81
2020/12/09 07:51:19;;;;;;;39.93;21.27;;;;;;;1.24;67.64;98824.31;251745;1134;114975;-83
2020/12/09 07:56:24;;;;;;;41.07;21.53;;;;;;;1.21;66.50;98830.48;251608;1134;115335;-84
2020/12/09 08:01:27;;;;;;;39.37;21.33;;;;;;;1.17;67.52;98821.86;250748;1134;115087;-83
2020/12/09 08:06:30;;;;;;;41.37;21.62;;;;;;;1.19;67.93;98827.08;250600;1134;114947;-82
2020/12/09 08:11:39;;;;;;;44.63;22.90;;;;;;;1.22;67.50;98824.34;251324;1134;115007;-84
2020/12/09 08:16:41;;;;;;;43.40;22.17;;;;;;;1.27;67.84;98827.70;251145;1135;114891;-83
2020/12/09 08:21:44;;;;;;;40.97;22.73;;;;;;;1.27;67.45;98848.67;249068;1134;115401;-83
2020/12/09 08:26:46;;;;;;;43.33;22.10;;;;;;;1.30;67.46;98842.50;251268;1134;115285;-83
2020/12/09 08:32:01;;;;;;;42.17;23.03;;;;;;;1.28;67.82;98849.53;249671;1135;114735;-85
2020/12/09 08:37:15;;;;;;;47.30;23.50;;;;;;;1.29;67.27;98849.50;251407;1133;115135;-80
2020/12/09 08:42:22;;;;;;;46.20;23.53;;;;;;;1.29;67.28;98844.27;251651;1134;114864;-81
2020/12/09 08:47:25;;;;;;;44.27;23.90;;;;;;;1.32;67.44;98843.30;251457;1135;114818;-82
2020/12/09 08:52:27;;;;;;;44.33;24.03;;;;;;;1.33;67.85;98838.03;251478;1135;115216;-81
2020/12/09 08:57:30;;;;;;;47.75;24.25;;;;;;;1.35;67.80;98849.31;251476;1137;114989;-78
2020/12/09 09:02:33;;;;;;;48.67;24.77;;;;;;;1.37;67.81;98844.05;251548;1134;115270;-78
2020/12/09 09:07:35;;;;;;;45.07;23.10;;;;;;;1.36;67.06;98842.33;251455;1134;114819;-79
2020/12/09 09:12:38;;;;;;;41.50;22.87;;;;;;;1.37;67.19;98844.05;249995;1135;115042;-79
2020/12/09 09:17:40;;;;;;;46.73;23.70;;;;;;;1.35;67.21;98848.45;251367;1135;114893;-78
2020/12/09 09:22:43;;;;;;;43.63;24.15;;;;;;;1.38;67.86;98846.61;251434;1135;115277;-86
2020/12/09 09:27:50;;;;;;;40.90;22.00;;;;;;;1.38;66.96;98856.23;250226;1134;115034;-84
2020/12/09 09:32:53;;;;;;;42.43;22.70;;;;;;;1.40;67.41;98859.69;251225;1135;115242;-82
2020/12/09 09:37:55;;;;;;;51.73;25.73;;;;;;;1.39;67.23;98858.84;251521;1135;114820;-84
2020/12/09 09:42:58;;;;;;;43.13;23.83;;;;;;;1.43;67.82;98856.98;251095;1134;115153;-83
2020/12/09 09:48:01;;;;;;;45.40;24.63;;;;;;;1.46;67.17;98862.14;251542;1135;115044;-81
2020/12/09 09:53:03;;;;;;;43.40;23.80;;;;;;;1.49;67.55;98867.27;251406;1135;115093;-83
2020/12/09 09:58:06;;;;;;;46.85;25.60;;;;;;;1.49;67.83;98867.27;251481;1135;114902;-85
2020/12/09 10:03:09;;;;;;;48.10;26.23;;;;;;;1.52;67.78;98861.09;251351;1135;115495;-82
2020/12/09 10:08:26;;;;;;;49.97;28.10;;;;;;;1.53;67.51;98863.69;251271;1135;114866;-80
2020/12/09 10:13:30;;;;;;;53.30;25.77;;;;;;;1.54;67.08;98862.78;251828;1134;115184;-82
2020/12/09 10:18:32;;;;;;;49.20;26.60;;;;;;;1.57;67.68;98849.58;251459;1135;115566;-84
2020/12/09 10:23:35;;;;;;;51.10;26.47;;;;;;;1.58;67.52;98856.53;251620;1134;114985;-82
2020/12/09 10:28:38;;;;;;;49.50;27.77;;;;;;;1.61;67.61;98842.48;251346;1133;115002;-81
2020/12/09 10:33:54;;;;;;;50.93;27.20;;;;;;;1.63;66.85;98841.54;251500;1135;115924;-83
2020/12/09 10:38:57;;;;;;;49.00;26.50;;;;;;;1.66;67.21;98843.19;250914;1135;115007;-83
2020/12/09 10:44:00;;;;;;;48.23;26.20;;;;;;;1.68;67.52;98848.41;250851;1134;115252;-82
2020/12/09 10:49:05;;;;;;;52.20;26.83;;;;;;;1.66;67.10;98856.30;251510;1134;115154;-79
2020/12/09 10:54:07;;;;;;;46.87;25.47;;;;;;;1.66;67.59;98848.44;250474;1134;115031;-83
2020/12/09 10:59:10;;;;;;;50.57;28.30;;;;;;;1.66;67.37;98835.33;248486;1134;115006;-86
2020/12/09 11:10:06;;;;;;;53.63;29.33;;;;;;;1.63;67.65;98824.92;249087;1135;115522;-84
2020/12/09 11:15:11;;;;;;;55.70;29.07;;;;;;;1.65;67.11;98818.73;249342;1134;115205;-81
2020/12/09 11:20:14;;;;;;;53.97;28.10;;;;;;;1.65;67.18;98807.38;251497;1134;115092;-84
2020/12/09 11:31:00;;;;;;;50.97;26.87;;;;;;;1.67;67.29;98792.48;249195;1135;115182;-83
2020/12/09 11:36:06;;;;;;;47.47;24.67;;;;;;;1.65;67.06;98789.03;251142;1134;115090;-81
2020/12/09 11:41:11;;;;;;;49.03;26.77;;;;;;;1.64;67.42;98793.42;249187;1135;115102;-84
2020/12/09 11:46:15;;;;;;;44.97;25.33;;;;;;;1.62;67.33;98792.59;248479;1135;115485;-81
2020/12/09 11:51:17;;;;;;;50.93;27.37;;;;;;;1.61;67.25;98793.51;250639;1133;115205;-80
2020/12/09 11:56:26;;;;;;;47.67;25.00;;;;;;;1.64;67.47;98790.80;251042;1134;114865;-82
2020/12/09 12:01:29;;;;;;;48.83;25.93;;;;;;;1.63;67.21;98796.95;249812;1135;115874;-83
2020/12/09 12:06:32;;;;;;;49.80;26.83;;;;;;;1.67;67.50;98789.85;251457;1134;115668;-83
2020/12/09 12:11:34;;;;;;;51.73;28.23;;;;;;;1.67;67.20;98781.98;248911;1134;115165;-80
2020/12/09 12:16:37;;;;;;;46.17;24.40;;;;;;;1.65;67.11;98778.53;249422;1135;115231;-83
2020/12/09 12:21:42;;;;;;;48.83;26.77;;;;;;;1.62;66.93;98781.25;251417;1136;115087;-82
2020/12/09 12:26:45;;;;;;;48.00;26.23;;;;;;;1.63;66.83;98783.84;251026;1134;114954;-84
2020/12/09 12:31:48;;;;;;;49.90;26.03;;;;;;;1.67;67.11;98789.85;249599;1134;115129;-83
2020/12/09 12:36:55;;;;;;;45.30;26.13;;;;;;;1.64;67.15;98785.55;250240;1134;115616;-82
2020/12/09 12:41:57;;;;;;;46.27;24.57;;;;;;;1.57;67.29;98784.02;251133;1133;115410;-83
2020/12/09 12:47:02;;;;;;;45.45;22.50;;;;;;;1.55;66.68;98791.06;247532;1134;115019;-81
2020/12/09 12:52:04;;;;;;;50.53;26.33;;;;;;;1.49;66.96;98788.61;251063;1134;115110;-83
2020/12/09 12:57:06;;;;;;;45.50;24.33;;;;;;;1.52;67.33;98787.67;250348;1134;115803;-84
2020/12/09 13:02:09;;;;;;;47.27;25.10;;;;;;;1.53;67.22;98777.16;250496;1134;114993;-86
2020/12/09 13:07:11;;;;;;;49.93;25.70;;;;;;;1.52;67.56;98775.41;250688;1134;116200;-79
2020/12/09 13:12:20;;;;;;;46.17;24.57;;;;;;;1.49;67.73;98800.87;248312;1134;115738;-84
2020/12/09 13:17:22;;;;;;;51.47;25.00;;;;;;;1.42;67.41;98797.56;250589;1134;114763;-82
2020/12/09 13:22:25;;;;;;;47.03;25.30;;;;;;;1.45;67.03;98794.00;250556;1134;115842;-81
2020/12/09 13:27:27;;;;;;;44.43;24.30;;;;;;;1.46;66.87;98783.48;249123;1133;115241;-84
2020/12/09 13:32:29;;;;;;;42.75;24.45;;;;;;;1.42;66.96;98785.30;248375;1134;115127;-84
2020/12/09 13:37:32;;;;;;;42.40;23.77;;;;;;;1.41;67.67;98786.22;249694;1135;115194;-88
2020/12/09 13:42:37;;;;;;;54.60;25.83;;;;;;;1.46;67.02;98783.48;249375;1135;115132;-81
2020/12/09 13:47:39;;;;;;;48.53;25.77;;;;;;;1.48;67.57;98772.94;250329;1135;115151;-82
2020/12/09 13:52:42;;;;;;;46.50;25.67;;;;;;;1.47;67.52;98787.81;251500;1134;114826;-83
2020/12/09 13:57:45;;;;;;;45.67;24.73;;;;;;;1.47;67.52;98772.08;251489;1133;115036;-81
2020/12/09 14:02:47;;;;;;;47.77;25.63;;;;;;;1.45;66.84;98775.65;250067;1135;115053;-82
2020/12/09 14:07:50;;;;;;;48.30;26.37;;;;;;;1.44;67.64;98793.15;250252;1134;115039;-84
2020/12/09 14:12:55;;;;;;;46.70;25.37;;;;;;;1.40;67.29;98787.14;248204;1134;115407;-82
2020/12/09 14:17:57;;;;;;;48.10;24.97;;;;;;;1.38;67.34;98790.70;249659;1134;115232;-82
2020/12/09 14:23:00;;;;;;;50.80;26.80;;;;;;;1.40;66.96;98799.39;250237;1134;115075;-87
2020/12/09 14:28:02;;;;;;;46.42;26.35;;;;;;;1.41;67.16;98793.23;251289;1134;115073;-79
2020/12/09 14:33:07;;;;;;;46.67;24.37;;;;;;;1.35;66.47;98788.16;250776;1135;114971;-85
2020/12/09 14:38:10;;;;;;;47.73;24.63;;;;;;;1.32;66.53;98785.62;250067;1134;114996;-85
2020/12/09 14:43:13;;;;;;;49.57;26.90;;;;;;;1.30;67.46;98785.68;250813;1135;115722;-80
2020/12/09 14:48:15;;;;;;;48.67;25.27;;;;;;;1.34;67.23;98779.44;249480;1135;115325;-86
2020/12/09 14:53:19;;;;;;;49.63;25.85;;;;;;;1.32;67.23;98788.25;251211;1134;114950;-81
2020/12/09 14:58:22;;;;;;;48.10;24.73;;;;;;;1.32;67.14;98785.62;250656;1134;114964;-80
2020/12/09 15:03:24;;;;;;;50.83;25.40;;;;;;;1.30;66.50;98792.69;251443;1135;114928;-81
2020/12/09 15:10:25;;;;;;;53.45;26.82;;;;;;;1.23;66.76;98796.39;252492;1132;104399;-68
2020/12/09 15:15:28;;;;;;;51.20;26.33;;;;;;;1.18;66.68;98792.12;251902;1134;114776;-67
2020/12/09 15:20:31;;;;;;;54.83;27.40;;;;;;;1.18;67.08;98797.36;252203;1132;114451;-69
2020/12/09 15:25:33;;;;;;;52.78;25.85;;;;;;;1.20;67.09;98781.61;251988;1133;114481;-72
2020/12/09 15:30:39;;;;;;;55.08;27.93;;;;;;;1.21;66.89;98788.55;251776;1133;115080;-68
2020/12/09 15:35:43;;;;;;;50.92;27.65;;;;;;;1.20;66.74;98781.61;251997;1132;114506;-69
2020/12/09 15:40:46;;;;;;;51.75;26.62;;;;;;;1.22;66.75;98790.27;251981;1132;114423;-69
2020/12/09 15:45:48;;;;;;;54.98;26.97;;;;;;;1.25;67.35;98789.33;251716;1131;114631;-68
2020/12/09 15:50:51;;;;;;;53.23;27.57;;;;;;;1.26;66.72;98798.90;252175;1131;114445;-69
2020/12/09 15:55:53;;;;;;;57.43;28.25;;;;;;;1.22;66.80;98785.02;252083;1133;114800;-69
2020/12/09 16:00:56;;;;;;;48.47;25.57;;;;;;;1.16;66.64;98788.70;251980;1141;114936;-70
2020/12/09 16:05:58;;;;;;;51.95;25.72;;;;;;;1.12;67.53;98787.08;252152;1132;115641;-69
2020/12/09 16:11:01;;;;;;;58.17;28.12;;;;;;;1.09;67.03;98796.78;252045;1132;114611;-69
2020/12/09 16:16:05;;;;;;;54.88;26.93;;;;;;;1.06;67.46;98786.38;252048;1134;115027;-73
2020/12/09 16:21:08;;;;;;;59.30;29.33;;;;;;;1.07;66.81;98791.56;252095;1132;114737;-68
2020/12/09 16:26:11;;;;;;;60.98;30.05;;;;;;;1.09;67.43;98787.16;251771;1131;114570;-71
2020/12/09 16:31:14;;;;;;;64.70;28.95;;;;;;;1.12;67.72;98801.91;252018;1133;114603;-71
2020/12/09 16:36:17;;;;;;;55.50;28.55;;;;;;;1.10;67.54;98794.10;252128;1134;114702;-70
2020/12/09 16:41:19;;;;;;;58.87;29.63;;;;;;;1.10;66.80;98799.34;252078;1134;114899;-70
2020/12/09 16:46:42;;;;;;;52.85;26.87;;;;;;;1.09;67.70;98799.41;252061;1132;114396;-79
2020/12/09 16:51:52;;;;;;;58.08;29.45;;;;;;;1.04;67.53;98799.50;251725;1133;114730;-81
2020/12/09 16:57:45;;;;;;;62.20;30.05;;;;;;;1.07;67.55;98796.80;252055;1132;114715;-75
2020/12/09 17:02:51;;;;;;;61.85;30.60;;;;;;;1.09;67.56;98796.78;251960;1132;114755;-78
2020/12/09 17:08:16;;;;;;;64.00;30.10;;;;;;;1.07;66.77;98807.28;251705;1134;114854;-80
2020/12/09 17:13:43;;;;;;;;;;;;;;;;;;;;;
2020/12/09 17:19:42;;;;;;;58.50;28.52;;;;;;;1.06;67.27;98796.86;251838;1133;115756;-79
2020/12/09 17:25:01;;;;;;;51.25;27.77;;;;;;;1.04;66.67;98798.66;252029;1132;114376;-80
2020/12/09 17:30:24;;;;;;;50.83;26.65;;;;;;;1.07;66.71;98799.42;252020;1132;114728;-82
2020/12/09 17:36:21;;;;;;;;;;;;;;;;;;;;;
2020/12/09 17:42:21;;;;;;;56.83;28.98;;;;;;;0.97;67.47;98774.38;251794;1132;115628;-81
2020/12/09 17:48:08;;;;;;;63.92;29.57;;;;;;;0.96;67.85;98775.30;251651;1132;115205;-83
2020/12/09 17:53:18;;;;;;;56.80;28.00;;;;;;;0.98;67.39;98775.23;251949;1132;114830;-82
2020/12/09 17:58:24;;;;;;;53.85;29.15;;;;;;;0.96;67.63;98772.67;251722;1134;114445;-79
2020/12/09 18:04:29;;;;;;;56.35;29.15;;;;;;;0.94;67.59;98764.84;251190;1135;115055;-85
2020/12/09 18:10:07;;;;;;;;;;;;;;;;;;;;;
2020/12/09 18:15:45;;;;;;;60.20;28.47;;;;;;;1.00;67.26;98768.20;251614;1134;102434;-80
2020/12/09 18:21:30;;;;;;;57.17;28.60;;;;;;;1.02;67.70;98764.65;251724;1133;114681;-82
2020/12/09 18:27:49;;;;;;;;;;;;;;;;;;;;;
2020/12/09 18:33:27;;;;;;;;;;;;;;;1.01;67.42;98757.66;251782;1134;114391;-82
2020/12/09 18:38:58;;;;;;;63.20;28.77;;;;;;;1.01;66.77;98764.67;251725;1133;102529;-79
2020/12/09 18:44:06;;;;;;;60.40;30.15;;;;;;;0.96;66.99;98774.44;251895;1132;115546;-80
2020/12/09 18:49:15;;;;;;;60.30;32.33;;;;;;;1.00;67.77;98776.92;251790;1134;114814;-80
2020/12/09 18:54:41;;;;;;;58.70;29.07;;;;;;;0.99;67.68;98783.07;251651;1133;114687;-80
2020/12/09 18:59:49;;;;;;;61.83;31.15;;;;;;;0.97;67.66;98778.77;251390;1134;116210;-79
2020/12/09 19:05:10;;;;;;;65.80;30.60;;;;;;;0.96;67.01;98779.68;250562;1137;115295;-78
2020/12/09 19:10:27;;;;;;;67.03;31.33;;;;;;;0.97;67.13;98769.14;250385;1137;115306;-78
2020/12/09 19:15:59;;;;;;;64.40;31.68;;;;;;;0.94;67.80;98771.84;251846;1134;114720;-82
2020/12/09 19:21:10;;;;;;;61.60;29.85;;;;;;;0.95;67.04;98763.07;251619;1134;114614;-82
2020/12/09 19:26:50;;;;;;;63.48;29.95;;;;;;;0.96;66.98;98764.81;251592;1133;114809;-87
2020/12/09 19:32:28;;;;;;;;;;;;;;;;;;;;;
2020/12/09 19:37:53;;;;;;;55.67;28.02;;;;;;;0.89;67.70;98769.36;251714;1134;114248;-82
2020/12/09 19:43:43;;;;;;;66.53;32.28;;;;;;;0.91;67.93;98775.40;251952;1134;114382;-83
2020/12/09 19:49:21;;;;;;;57.85;30.27;;;;;;;0.98;67.92;98778.70;251575;1134;115413;-83
2020/12/09 19:55:20;;;;;;;;;;;;;;;;;;;;;
2020/12/09 20:06:55;;;;;;;53.77;27.70;;;;;;;0.95;67.44;98784.03;251255;1135;115410;-71
2020/12/09 20:11:58;;;;;;;60.93;30.47;;;;;;;0.91;67.62;98783.25;252125;1132;114626;-69
2020/12/09 20:17:02;;;;;;;68.13;35.00;;;;;;;0.94;67.60;98780.55;251922;1135;114559;-68
2020/12/09 20:22:04;;;;;;;64.50;30.97;;;;;;;0.98;67.16;98797.05;251941;1132;115296;-70
2020/12/09 20:27:09;;;;;;;61.95;31.55;;;;;;;0.92;67.27;98794.63;252182;1134;115108;-70
2020/12/09 20:32:21;;;;;;;;;;;;;;;0.84;67.70;98781.70;252116;1132;114524;-70
2020/12/09 20:37:24;;;;;;;62.33;31.75;;;;;;;0.80;66.77;98787.08;251976;1132;103401;-70
2020/12/09 20:42:26;;;;;;;61.92;31.20;;;;;;;0.80;67.79;98792.31;252080;1134;114591;-70
2020/12/09 20:47:33;;;;;;;55.85;28.87;;;;;;;0.79;67.75;98785.38;252108;1132;114400;-69
2020/12/09 20:52:38;;;;;;;45.05;22.73;;;;;;;0.79;67.44;98761.80;252183;1134;114279;-69
2020/12/09 20:57:40;;;;;;;65.75;31.85;;;;;;;0.76;67.74;98764.50;252134;1132;114771;-69
2020/12/09 21:02:43;;;;;;;66.15;32.93;;;;;;;0.77;66.57;98768.83;252087;1132;114504;-70
2020/12/09 21:07:46;;;;;;;62.48;31.55;;;;;;;0.80;67.81;98776.60;251949;1132;114567;-70
2020/12/09 21:12:49;;;;;;;69.95;32.83;;;;;;;0.80;67.83;98771.37;252046;1132;114637;-70
2020/12/09 21:17:51;;;;;;;64.27;32.60;;;;;;;0.82;66.91;98762.58;251690;1133;115348;-70
2020/12/09 21:22:55;;;;;;;63.35;31.30;;;;;;;0.83;67.61;98773.91;251961;1134;115023;-69
2020/12/09 21:27:57;;;;;;;61.20;31.40;;;;;;;0.83;67.79;98760.80;251897;1134;114441;-70
2020/12/09 21:32:59;;;;;;;60.30;30.02;;;;;;;0.81;66.63;98754.73;251638;1134;114337;-70
2020/12/09 21:38:02;;;;;;;61.95;29.20;;;;;;;0.78;67.89;98758.33;251965;1132;114614;-71
2020/12/09 21:43:04;;;;;;;62.30;30.40;;;;;;;0.79;67.27;98756.56;251794;1132;114686;-70
2020/12/09 21:48:07;;;;;;;62.93;30.27;;;;;;;0.80;67.26;98753.03;251875;1135;114459;-70
2020/12/09 21:53:09;;;;;;;60.90;29.90;;;;;;;0.78;68.29;98742.61;252057;1132;114636;-70
2020/12/09 21:58:11;;;;;;;60.85;29.63;;;;;;;0.78;66.65;98746.96;252100;1134;114573;-69
2020/12/09 22:03:13;;;;;;;57.05;28.35;;;;;;;0.75;68.25;98741.80;251812;1132;114178;-70
2020/12/09 22:08:16;;;;;;;62.58;29.50;;;;;;;0.75;67.66;98740.07;251777;1134;114441;-70
2020/12/09 22:13:18;;;;;;;64.62;32.53;;;;;;;0.77;67.66;98734.78;252103;1132;114867;-70
2020/12/09 22:18:21;;;;;;;61.23;30.40;;;;;;;0.82;67.52;98735.53;251844;1134;114214;-70
2020/12/09 22:23:23;;;;;;;57.88;31.37;;;;;;;0.82;66.94;98722.43;251542;1132;114749;-70
2020/12/09 22:28:26;;;;;;;57.62;27.80;;;;;;;0.79;67.20;98699.80;251901;1133;115033;-69
2020/12/09 22:33:28;;;;;;;51.88;27.10;;;;;;;0.75;67.63;98699.91;251862;1134;114675;-69
2020/12/09 22:38:43;;;;;;;;;;;;;;;;;;;;;
2020/12/09 22:43:47;;;;;;;53.05;26.15;;;;;;;0.70;67.40;98690.42;251779;1132;114626;-79
2020/12/09 22:49:03;;;;;;;54.77;26.65;;;;;;;0.67;66.92;98682.64;251802;1132;114785;-80
2020/12/09 22:54:13;;;;;;;50.63;27.52;;;;;;;0.69;66.84;98672.15;252147;1132;115258;-79
2020/12/09 22:59:18;;;;;;;57.27;29.23;;;;;;;0.80;67.58;98674.45;252067;1132;114763;-78
2020/12/09 23:04:32;;;;;;;53.73;27.07;;;;;;;0.85;67.74;98669.93;251916;1135;117717;-77
2020/12/09 23:09:43;;;;;;;54.33;28.60;;;;;;;0.85;67.75;98660.34;251844;1134;114671;-78
2020/12/09 23:14:46;;;;;;;53.02;26.52;;;;;;;0.81;68.06;98650.83;251813;1134;114759;-79
2020/12/09 23:19:54;;;;;;;58.10;26.80;;;;;;;0.78;67.94;98660.53;251672;1134;116532;-78
2020/12/09 23:25:30;;;;;;;56.13;27.05;;;;;;;0.70;67.70;98659.00;250836;1134;115454;-79
2020/12/09 23:30:37;;;;;;;48.50;25.27;;;;;;;0.68;66.96;98650.34;252055;1133;115007;-78
2020/12/09 23:35:44;;;;;;;50.70;26.12;;;;;;;0.68;68.00;98647.73;251881;1134;115594;-79
2020/12/09 23:40:54;;;;;;;54.93;26.50;;;;;;;0.70;67.22;98648.52;252040;1133;115360;-79
2020/12/09 23:46:29;;;;;;;49.38;26.82;;;;;;;0.70;68.69;98648.52;251831;1134;114764;-78
2020/12/09 23:51:47;;;;;;;46.98;24.95;;;;;;;0.74;68.60;98644.05;251886;1133;115484;-78
2020/12/09 23:57:07;;;;;;;49.03;25.67;;;;;;;0.73;67.48;98633.64;251792;1135;114872;-80
